sensor_id;sensor_type;location;lat;lon;timestamp;P1;durP1;ratioP1;P2;durP2;ratioP2
21546;SDS011;41275;51.912;4.388;2023-05-10T00:01:51;28.95;;;15.23;;
21546;SDS011;41275;51.912;4.388;2023-05-10T00:07:12;33.70;;;17.35;;
21546;SDS011;41275;51.912;4.388;2023-05-10T00:12:33;44.67;;;21.07;;
21546;SDS011;41275;51.912;4.388;2023-05-10T00:17:54;42.97;;;20.77;;
21546;SDS011;41275;51.912;4.388;2023-05-10T00:23:15;44.38;;;22.27;;
21546;SDS011;41275;51.912;4.388;2023-05-10T00:28:37;47.75;;;22.17;;
21546;SDS011;41275;51.912;4.388;2023-05-10T00:33:58;44.27;;;21.23;;
21546;SDS011;41275;51.912;4.388;2023-05-10T00:39:19;41.20;;;18.87;;
21546;SDS011;41275;51.912;4.388;2023-05-10T00:44:40;34.00;;;15.82;;
21546;SDS011;41275;51.912;4.388;2023-05-10T00:50:02;31.65;;;14.05;;
21546;SDS011;41275;51.912;4.388;2023-05-10T00:55:23;25.67;;;13.25;;
21546;SDS011;41275;51.912;4.388;2023-05-10T01:00:44;30.55;;;13.55;;
21546;SDS011;41275;51.912;4.388;2023-05-10T01:06:07;27.98;;;13.60;;
21546;SDS011;41275;51.912;4.388;2023-05-10T01:11:28;26.75;;;12.52;;
21546;SDS011;41275;51.912;4.388;2023-05-10T01:16:50;30.50;;;12.90;;
21546;SDS011;41275;51.912;4.388;2023-05-10T01:22:22;32.63;;;13.13;;
21546;SDS011;41275;51.912;4.388;2023-05-10T01:34:06;26.02;;;11.27;;
21546;SDS011;41275;51.912;4.388;2023-05-10T01:39:36;27.30;;;12.18;;
21546;SDS011;41275;51.912;4.388;2023-05-10T01:45:07;26.02;;;12.50;;
21546;SDS011;41275;51.912;4.388;2023-05-10T01:50:36;28.20;;;12.18;;
21546;SDS011;41275;51.912;4.388;2023-05-10T01:56:00;29.37;;;13.03;;
21546;SDS011;41275;51.912;4.388;2023-05-10T02:01:23;29.08;;;13.00;;
21546;SDS011;41275;51.912;4.388;2023-05-10T02:06:46;25.98;;;12.20;;
21546;SDS011;41275;51.912;4.388;2023-05-10T02:12:11;26.15;;;9.73;;
21546;SDS011;41275;51.912;4.388;2023-05-10T02:17:35;24.25;;;9.95;;
21546;SDS011;41275;51.912;4.388;2023-05-10T02:22:57;23.25;;;10.98;;
21546;SDS011;41275;51.912;4.388;2023-05-10T02:28:21;22.57;;;11.43;;
21546;SDS011;41275;51.912;4.388;2023-05-10T02:33:44;23.05;;;11.70;;
21546;SDS011;41275;51.912;4.388;2023-05-10T02:39:06;21.95;;;11.15;;
21546;SDS011;41275;51.912;4.388;2023-05-10T02:44:33;26.07;;;12.60;;
21546;SDS011;41275;51.912;4.388;2023-05-10T02:49:56;24.40;;;12.27;;
21546;SDS011;41275;51.912;4.388;2023-05-10T02:55:19;26.00;;;12.52;;
21546;SDS011;41275;51.912;4.388;2023-05-10T03:00:43;26.80;;;13.63;;
21546;SDS011;41275;51.912;4.388;2023-05-10T03:06:04;27.85;;;13.10;;
21546;SDS011;41275;51.912;4.388;2023-05-10T03:11:39;33.45;;;13.82;;
21546;SDS011;41275;51.912;4.388;2023-05-10T03:17:11;28.37;;;13.90;;
21546;SDS011;41275;51.912;4.388;2023-05-10T03:22:40;24.63;;;12.50;;
21546;SDS011;41275;51.912;4.388;2023-05-10T03:28:05;24.43;;;13.80;;
21546;SDS011;41275;51.912;4.388;2023-05-10T03:33:26;33.27;;;14.90;;
21546;SDS011;41275;51.912;4.388;2023-05-10T03:38:48;34.07;;;16.90;;
21546;SDS011;41275;51.912;4.388;2023-05-10T03:44:09;36.40;;;18.48;;
21546;SDS011;41275;51.912;4.388;2023-05-10T03:49:30;25.80;;;13.10;;
21546;SDS011;41275;51.912;4.388;2023-05-10T03:54:51;27.02;;;13.95;;
21546;SDS011;41275;51.912;4.388;2023-05-10T04:00:13;30.63;;;14.73;;
21546;SDS011;41275;51.912;4.388;2023-05-10T04:05:35;27.88;;;14.82;;
21546;SDS011;41275;51.912;4.388;2023-05-10T04:11:06;28.63;;;14.73;;
21546;SDS011;41275;51.912;4.388;2023-05-10T04:16:28;29.77;;;15.07;;
21546;SDS011;41275;51.912;4.388;2023-05-10T04:21:50;29.83;;;16.37;;
21546;SDS011;41275;51.912;4.388;2023-05-10T04:27:11;25.73;;;14.02;;
21546;SDS011;41275;51.912;4.388;2023-05-10T04:32:32;25.40;;;13.07;;
21546;SDS011;41275;51.912;4.388;2023-05-10T04:37:53;21.90;;;11.63;;
21546;SDS011;41275;51.912;4.388;2023-05-10T04:43:15;21.60;;;10.88;;
21546;SDS011;41275;51.912;4.388;2023-05-10T04:48:36;14.27;;;8.43;;
21546;SDS011;41275;51.912;4.388;2023-05-10T04:53:57;15.20;;;8.73;;
21546;SDS011;41275;51.912;4.388;2023-05-10T04:59:18;17.40;;;9.40;;
21546;SDS011;41275;51.912;4.388;2023-05-10T05:04:40;19.85;;;10.07;;
21546;SDS011;41275;51.912;4.388;2023-05-10T05:10:01;15.35;;;7.97;;
21546;SDS011;41275;51.912;4.388;2023-05-10T05:15:22;20.65;;;8.60;;
21546;SDS011;41275;51.912;4.388;2023-05-10T05:20:43;16.23;;;7.93;;
21546;SDS011;41275;51.912;4.388;2023-05-10T05:26:04;18.02;;;8.80;;
21546;SDS011;41275;51.912;4.388;2023-05-10T05:31:26;19.33;;;8.75;;
21546;SDS011;41275;51.912;4.388;2023-05-10T05:36:47;17.67;;;7.75;;
21546;SDS011;41275;51.912;4.388;2023-05-10T05:42:11;19.58;;;8.27;;
21546;SDS011;41275;51.912;4.388;2023-05-10T05:47:34;17.83;;;7.50;;
21546;SDS011;41275;51.912;4.388;2023-05-10T05:52:55;17.40;;;8.52;;
21546;SDS011;41275;51.912;4.388;2023-05-10T05:58:21;19.42;;;8.60;;
21546;SDS011;41275;51.912;4.388;2023-05-10T06:03:43;17.40;;;7.85;;
21546;SDS011;41275;51.912;4.388;2023-05-10T06:09:04;14.83;;;6.57;;
21546;SDS011;41275;51.912;4.388;2023-05-10T06:14:25;11.03;;;4.53;;
21546;SDS011;41275;51.912;4.388;2023-05-10T06:19:47;8.25;;;4.28;;
21546;SDS011;41275;51.912;4.388;2023-05-10T06:25:08;8.90;;;4.07;;
21546;SDS011;41275;51.912;4.388;2023-05-10T06:30:30;6.50;;;3.47;;
21546;SDS011;41275;51.912;4.388;2023-05-10T06:35:51;7.70;;;3.63;;
21546;SDS011;41275;51.912;4.388;2023-05-10T06:41:12;8.63;;;4.07;;
21546;SDS011;41275;51.912;4.388;2023-05-10T06:46:34;6.50;;;3.53;;
21546;SDS011;41275;51.912;4.388;2023-05-10T06:51:55;7.15;;;3.88;;
21546;SDS011;41275;51.912;4.388;2023-05-10T06:57:17;8.18;;;3.92;;
21546;SDS011;41275;51.912;4.388;2023-05-10T07:02:38;7.05;;;3.90;;
21546;SDS011;41275;51.912;4.388;2023-05-10T07:08:00;6.83;;;3.83;;
21546;SDS011;41275;51.912;4.388;2023-05-10T07:13:21;6.43;;;3.72;;
21546;SDS011;41275;51.912;4.388;2023-05-10T07:18:42;6.07;;;3.90;;
21546;SDS011;41275;51.912;4.388;2023-05-10T07:24:04;8.38;;;4.55;;
21546;SDS011;41275;51.912;4.388;2023-05-10T07:29:25;7.45;;;4.35;;
21546;SDS011;41275;51.912;4.388;2023-05-10T07:34:46;7.30;;;3.83;;
21546;SDS011;41275;51.912;4.388;2023-05-10T07:40:08;6.63;;;3.83;;
21546;SDS011;41275;51.912;4.388;2023-05-10T07:45:29;6.00;;;3.15;;
21546;SDS011;41275;51.912;4.388;2023-05-10T07:50:50;6.10;;;3.53;;
21546;SDS011;41275;51.912;4.388;2023-05-10T08:01:42;8.75;;;4.40;;
21546;SDS011;41275;51.912;4.388;2023-05-10T08:07:03;7.32;;;4.57;;
21546;SDS011;41275;51.912;4.388;2023-05-10T08:12:25;8.57;;;4.55;;
21546;SDS011;41275;51.912;4.388;2023-05-10T08:17:46;6.30;;;4.40;;
21546;SDS011;41275;51.912;4.388;2023-05-10T08:23:07;7.05;;;3.67;;
21546;SDS011;41275;51.912;4.388;2023-05-10T08:28:28;6.88;;;2.90;;
21546;SDS011;41275;51.912;4.388;2023-05-10T08:33:50;5.33;;;2.77;;
21546;SDS011;41275;51.912;4.388;2023-05-10T08:39:12;6.82;;;3.63;;
21546;SDS011;41275;51.912;4.388;2023-05-10T08:44:34;8.77;;;4.17;;
21546;SDS011;41275;51.912;4.388;2023-05-10T08:49:57;6.45;;;4.00;;
21546;SDS011;41275;51.912;4.388;2023-05-10T08:55:20;8.82;;;4.32;;
21546;SDS011;41275;51.912;4.388;2023-05-10T09:00:41;7.57;;;5.05;;
21546;SDS011;41275;51.912;4.388;2023-05-10T09:06:03;9.35;;;5.32;;
21546;SDS011;41275;51.912;4.388;2023-05-10T09:11:24;9.07;;;5.27;;
21546;SDS011;41275;51.912;4.388;2023-05-10T09:16:45;9.50;;;6.63;;
21546;SDS011;41275;51.912;4.388;2023-05-10T09:22:07;10.20;;;5.87;;
21546;SDS011;41275;51.912;4.388;2023-05-10T09:27:29;11.40;;;5.68;;
21546;SDS011;41275;51.912;4.388;2023-05-10T09:32:50;7.13;;;4.65;;
21546;SDS011;41275;51.912;4.388;2023-05-10T09:38:11;7.65;;;4.65;;
21546;SDS011;41275;51.912;4.388;2023-05-10T09:43:37;7.67;;;4.37;;
21546;SDS011;41275;51.912;4.388;2023-05-10T09:48:58;7.47;;;4.03;;
21546;SDS011;41275;51.912;4.388;2023-05-10T09:54:20;8.27;;;3.40;;
21546;SDS011;41275;51.912;4.388;2023-05-10T09:59:44;6.47;;;3.57;;
21546;SDS011;41275;51.912;4.388;2023-05-10T10:05:06;8.25;;;3.92;;
21546;SDS011;41275;51.912;4.388;2023-05-10T10:10:28;10.17;;;4.63;;
21546;SDS011;41275;51.912;4.388;2023-05-10T10:15:49;8.30;;;4.07;;
21546;SDS011;41275;51.912;4.388;2023-05-10T10:21:12;8.38;;;4.32;;
21546;SDS011;41275;51.912;4.388;2023-05-10T10:26:34;7.67;;;4.10;;
21546;SDS011;41275;51.912;4.388;2023-05-10T10:37:42;8.27;;;3.60;;
21546;SDS011;41275;51.912;4.388;2023-05-10T10:43:23;9.80;;;3.45;;
21546;SDS011;41275;51.912;4.388;2023-05-10T10:49:08;7.65;;;3.65;;
21546;SDS011;41275;51.912;4.388;2023-05-10T10:54:30;6.07;;;3.03;;
21546;SDS011;41275;51.912;4.388;2023-05-10T11:00:17;4.73;;;2.63;;
21546;SDS011;41275;51.912;4.388;2023-05-10T11:05:41;4.70;;;2.22;;
21546;SDS011;41275;51.912;4.388;2023-05-10T11:11:04;5.13;;;2.47;;
21546;SDS011;41275;51.912;4.388;2023-05-10T11:16:27;6.03;;;2.35;;
21546;SDS011;41275;51.912;4.388;2023-05-10T11:21:50;5.53;;;2.70;;
21546;SDS011;41275;51.912;4.388;2023-05-10T11:27:12;6.45;;;2.28;;
21546;SDS011;41275;51.912;4.388;2023-05-10T11:32:35;6.00;;;2.63;;
21546;SDS011;41275;51.912;4.388;2023-05-10T11:37:58;4.38;;;2.13;;
21546;SDS011;41275;51.912;4.388;2023-05-10T11:43:19;6.88;;;2.40;;
21546;SDS011;41275;51.912;4.388;2023-05-10T11:48:49;6.57;;;2.42;;
21546;SDS011;41275;51.912;4.388;2023-05-10T11:54:11;6.13;;;2.05;;
21546;SDS011;41275;51.912;4.388;2023-05-10T11:59:33;7.13;;;2.40;;
21546;SDS011;41275;51.912;4.388;2023-05-10T12:04:54;6.22;;;2.53;;
21546;SDS011;41275;51.912;4.388;2023-05-10T12:10:17;6.75;;;2.50;;
21546;SDS011;41275;51.912;4.388;2023-05-10T12:15:46;6.60;;;3.10;;
21546;SDS011;41275;51.912;4.388;2023-05-10T12:21:09;4.53;;;2.20;;
21546;SDS011;41275;51.912;4.388;2023-05-10T12:26:31;5.47;;;2.17;;
21546;SDS011;41275;51.912;4.388;2023-05-10T12:31:56;5.90;;;2.10;;
21546;SDS011;41275;51.912;4.388;2023-05-10T12:37:23;5.72;;;2.47;;
21546;SDS011;41275;51.912;4.388;2023-05-10T12:42:45;4.78;;;1.67;;
21546;SDS011;41275;51.912;4.388;2023-05-10T12:48:06;6.00;;;1.80;;
21546;SDS011;41275;51.912;4.388;2023-05-10T12:53:27;5.50;;;2.28;;
21546;SDS011;41275;51.912;4.388;2023-05-10T12:58:48;5.60;;;2.83;;
21546;SDS011;41275;51.912;4.388;2023-05-10T13:04:10;5.82;;;2.42;;
21546;SDS011;41275;51.912;4.388;2023-05-10T13:09:31;6.77;;;2.43;;
21546;SDS011;41275;51.912;4.388;2023-05-10T13:14:52;7.95;;;2.72;;
21546;SDS011;41275;51.912;4.388;2023-05-10T13:20:13;6.27;;;2.67;;
21546;SDS011;41275;51.912;4.388;2023-05-10T13:25:35;6.13;;;2.30;;
21546;SDS011;41275;51.912;4.388;2023-05-10T13:30:56;2.90;;;1.75;;
21546;SDS011;41275;51.912;4.388;2023-05-10T13:36:17;4.53;;;1.98;;
21546;SDS011;41275;51.912;4.388;2023-05-10T13:41:40;4.15;;;1.77;;
21546;SDS011;41275;51.912;4.388;2023-05-10T13:47:02;4.55;;;1.70;;
21546;SDS011;41275;51.912;4.388;2023-05-10T13:52:23;5.18;;;2.50;;
21546;SDS011;41275;51.912;4.388;2023-05-10T13:57:44;4.75;;;2.33;;
21546;SDS011;41275;51.912;4.388;2023-05-10T14:03:06;5.70;;;2.30;;
21546;SDS011;41275;51.912;4.388;2023-05-10T14:08:28;6.10;;;2.50;;
21546;SDS011;41275;51.912;4.388;2023-05-10T14:13:49;7.55;;;3.15;;
21546;SDS011;41275;51.912;4.388;2023-05-10T14:19:10;9.38;;;3.60;;
21546;SDS011;41275;51.912;4.388;2023-05-10T14:24:32;7.93;;;3.70;;
21546;SDS011;41275;51.912;4.388;2023-05-10T14:29:53;7.70;;;4.18;;
21546;SDS011;41275;51.912;4.388;2023-05-10T14:35:14;7.15;;;3.35;;
21546;SDS011;41275;51.912;4.388;2023-05-10T14:40:36;8.20;;;3.20;;
21546;SDS011;41275;51.912;4.388;2023-05-10T14:45:57;6.00;;;3.53;;
21546;SDS011;41275;51.912;4.388;2023-05-10T14:51:18;5.63;;;2.83;;
21546;SDS011;41275;51.912;4.388;2023-05-10T14:56:42;8.25;;;3.80;;
21546;SDS011;41275;51.912;4.388;2023-05-10T15:02:03;7.55;;;3.20;;
21546;SDS011;41275;51.912;4.388;2023-05-10T15:07:25;6.40;;;3.28;;
21546;SDS011;41275;51.912;4.388;2023-05-10T15:12:46;6.50;;;3.20;;
21546;SDS011;41275;51.912;4.388;2023-05-10T15:18:08;4.78;;;2.83;;
21546;SDS011;41275;51.912;4.388;2023-05-10T15:23:30;5.73;;;2.77;;
21546;SDS011;41275;51.912;4.388;2023-05-10T15:28:51;5.47;;;2.80;;
21546;SDS011;41275;51.912;4.388;2023-05-10T15:34:13;4.33;;;2.67;;
21546;SDS011;41275;51.912;4.388;2023-05-10T15:39:35;4.80;;;2.77;;
21546;SDS011;41275;51.912;4.388;2023-05-10T15:44:56;4.55;;;2.15;;
21546;SDS011;41275;51.912;4.388;2023-05-10T15:50:17;4.97;;;2.80;;
21546;SDS011;41275;51.912;4.388;2023-05-10T15:55:38;3.70;;;2.10;;
21546;SDS011;41275;51.912;4.388;2023-05-10T16:00:59;2.67;;;1.80;;
21546;SDS011;41275;51.912;4.388;2023-05-10T16:06:21;4.05;;;2.03;;
21546;SDS011;41275;51.912;4.388;2023-05-10T16:11:42;3.23;;;1.50;;
21546;SDS011;41275;51.912;4.388;2023-05-10T16:17:03;3.72;;;1.70;;
21546;SDS011;41275;51.912;4.388;2023-05-10T16:22:25;3.95;;;1.50;;
21546;SDS011;41275;51.912;4.388;2023-05-10T16:27:49;4.45;;;1.73;;
21546;SDS011;41275;51.912;4.388;2023-05-10T16:33:10;4.43;;;2.20;;
21546;SDS011;41275;51.912;4.388;2023-05-10T16:38:32;5.25;;;2.75;;
21546;SDS011;41275;51.912;4.388;2023-05-10T16:43:53;5.83;;;3.17;;
21546;SDS011;41275;51.912;4.388;2023-05-10T16:49:14;6.47;;;2.97;;
21546;SDS011;41275;51.912;4.388;2023-05-10T16:54:35;5.85;;;2.35;;
21546;SDS011;41275;51.912;4.388;2023-05-10T16:59:57;5.73;;;2.73;;
21546;SDS011;41275;51.912;4.388;2023-05-10T17:05:18;5.53;;;3.30;;
21546;SDS011;41275;51.912;4.388;2023-05-10T17:10:40;8.07;;;3.50;;
21546;SDS011;41275;51.912;4.388;2023-05-10T17:16:01;6.57;;;3.67;;
21546;SDS011;41275;51.912;4.388;2023-05-10T17:21:25;6.82;;;4.35;;
21546;SDS011;41275;51.912;4.388;2023-05-10T17:26:47;7.47;;;3.60;;
21546;SDS011;41275;51.912;4.388;2023-05-10T17:32:08;7.60;;;4.10;;
21546;SDS011;41275;51.912;4.388;2023-05-10T17:37:29;8.15;;;3.63;;
21546;SDS011;41275;51.912;4.388;2023-05-10T17:42:52;8.40;;;3.97;;
21546;SDS011;41275;51.912;4.388;2023-05-10T17:48:13;9.23;;;4.97;;
21546;SDS011;41275;51.912;4.388;2023-05-10T17:53:35;8.43;;;5.43;;
21546;SDS011;41275;51.912;4.388;2023-05-10T17:58:56;10.13;;;6.07;;
21546;SDS011;41275;51.912;4.388;2023-05-10T18:04:17;11.95;;;5.28;;
21546;SDS011;41275;51.912;4.388;2023-05-10T18:09:38;10.35;;;5.63;;
21546;SDS011;41275;51.912;4.388;2023-05-10T18:14:59;9.27;;;4.97;;
21546;SDS011;41275;51.912;4.388;2023-05-10T18:20:21;7.47;;;4.50;;
21546;SDS011;41275;51.912;4.388;2023-05-10T18:25:42;7.68;;;4.70;;
21546;SDS011;41275;51.912;4.388;2023-05-10T18:31:04;8.25;;;4.00;;
21546;SDS011;41275;51.912;4.388;2023-05-10T18:36:25;7.77;;;4.37;;
21546;SDS011;41275;51.912;4.388;2023-05-10T18:41:48;7.97;;;4.23;;
21546;SDS011;41275;51.912;4.388;2023-05-10T18:47:09;7.43;;;4.18;;
21546;SDS011;41275;51.912;4.388;2023-05-10T18:52:31;6.57;;;3.77;;
21546;SDS011;41275;51.912;4.388;2023-05-10T18:57:52;8.55;;;4.05;;
21546;SDS011;41275;51.912;4.388;2023-05-10T19:03:13;8.48;;;4.03;;
21546;SDS011;41275;51.912;4.388;2023-05-10T19:08:34;9.23;;;3.90;;
21546;SDS011;41275;51.912;4.388;2023-05-10T19:13:55;9.90;;;3.92;;
21546;SDS011;41275;51.912;4.388;2023-05-10T19:19:17;7.75;;;3.83;;
21546;SDS011;41275;51.912;4.388;2023-05-10T19:24:38;7.27;;;4.07;;
21546;SDS011;41275;51.912;4.388;2023-05-10T19:29:59;5.15;;;3.08;;
21546;SDS011;41275;51.912;4.388;2023-05-10T19:35:22;6.35;;;3.15;;
21546;SDS011;41275;51.912;4.388;2023-05-10T19:40:43;4.45;;;2.25;;
21546;SDS011;41275;51.912;4.388;2023-05-10T19:46:04;4.07;;;2.33;;
21546;SDS011;41275;51.912;4.388;2023-05-10T19:51:26;4.07;;;2.20;;
21546;SDS011;41275;51.912;4.388;2023-05-10T19:56:47;3.38;;;1.80;;
21546;SDS011;41275;51.912;4.388;2023-05-10T20:02:08;4.47;;;2.05;;
21546;SDS011;41275;51.912;4.388;2023-05-10T20:07:29;4.00;;;2.23;;
21546;SDS011;41275;51.912;4.388;2023-05-10T20:12:50;4.07;;;2.55;;
21546;SDS011;41275;51.912;4.388;2023-05-10T20:18:12;5.93;;;2.73;;
21546;SDS011;41275;51.912;4.388;2023-05-10T20:23:33;5.63;;;2.83;;
21546;SDS011;41275;51.912;4.388;2023-05-10T20:28:55;5.78;;;2.92;;
21546;SDS011;41275;51.912;4.388;2023-05-10T20:34:16;8.07;;;4.03;;
21546;SDS011;41275;51.912;4.388;2023-05-10T20:39:37;7.35;;;3.40;;
21546;SDS011;41275;51.912;4.388;2023-05-10T20:44:58;6.70;;;3.63;;
21546;SDS011;41275;51.912;4.388;2023-05-10T20:50:19;4.47;;;3.00;;
21546;SDS011;41275;51.912;4.388;2023-05-10T20:55:41;4.30;;;2.97;;
21546;SDS011;41275;51.912;4.388;2023-05-10T21:01:02;6.60;;;3.25;;
21546;SDS011;41275;51.912;4.388;2023-05-10T21:06:23;6.82;;;2.83;;
21546;SDS011;41275;51.912;4.388;2023-05-10T21:11:44;4.63;;;2.73;;
21546;SDS011;41275;51.912;4.388;2023-05-10T21:17:05;6.25;;;3.80;;
21546;SDS011;41275;51.912;4.388;2023-05-10T21:22:27;5.18;;;2.83;;
21546;SDS011;41275;51.912;4.388;2023-05-10T21:27:48;5.10;;;2.70;;
21546;SDS011;41275;51.912;4.388;2023-05-10T21:33:09;5.60;;;2.90;;
21546;SDS011;41275;51.912;4.388;2023-05-10T21:38:31;5.07;;;2.93;;
21546;SDS011;41275;51.912;4.388;2023-05-10T21:43:52;6.10;;;3.67;;
21546;SDS011;41275;51.912;4.388;2023-05-10T21:49:13;6.93;;;3.65;;
21546;SDS011;41275;51.912;4.388;2023-05-10T21:54:35;6.85;;;3.58;;
21546;SDS011;41275;51.912;4.388;2023-05-10T21:59:57;5.60;;;3.40;;
21546;SDS011;41275;51.912;4.388;2023-05-10T22:05:18;5.82;;;3.47;;
21546;SDS011;41275;51.912;4.388;2023-05-10T22:10:39;6.65;;;3.70;;
21546;SDS011;41275;51.912;4.388;2023-05-10T22:16:00;7.90;;;4.10;;
21546;SDS011;41275;51.912;4.388;2023-05-10T22:21:21;6.22;;;3.63;;
21546;SDS011;41275;51.912;4.388;2023-05-10T22:26:43;8.40;;;4.28;;
21546;SDS011;41275;51.912;4.388;2023-05-10T22:32:04;7.07;;;3.67;;
21546;SDS011;41275;51.912;4.388;2023-05-10T22:37:26;7.22;;;4.22;;
21546;SDS011;41275;51.912;4.388;2023-05-10T22:42:47;6.47;;;4.10;;
21546;SDS011;41275;51.912;4.388;2023-05-10T22:48:08;6.75;;;4.30;;
21546;SDS011;41275;51.912;4.388;2023-05-10T22:53:29;8.38;;;4.80;;
21546;SDS011;41275;51.912;4.388;2023-05-10T22:58:50;7.47;;;4.67;;
21546;SDS011;41275;51.912;4.388;2023-05-10T23:04:12;7.88;;;4.85;;
21546;SDS011;41275;51.912;4.388;2023-05-10T23:09:33;10.35;;;5.63;;
21546;SDS011;41275;51.912;4.388;2023-05-10T23:14:54;7.97;;;5.28;;
21546;SDS011;41275;51.912;4.388;2023-05-10T23:20:16;7.53;;;5.18;;
21546;SDS011;41275;51.912;4.388;2023-05-10T23:25:37;6.90;;;4.90;;
21546;SDS011;41275;51.912;4.388;2023-05-10T23:30:58;11.68;;;5.88;;
21546;SDS011;41275;51.912;4.388;2023-05-10T23:36:20;13.95;;;8.75;;
21546;SDS011;41275;51.912;4.388;2023-05-10T23:41:41;28.80;;;18.42;;
21546;SDS011;41275;51.912;4.388;2023-05-10T23:47:02;21.20;;;13.32;;
21546;SDS011;41275;51.912;4.388;2023-05-10T23:52:24;15.73;;;9.30;;
21546;SDS011;41275;51.912;4.388;2023-05-10T23:57:45;15.85;;;10.07;;
